sensor_id;sensor_type;location;lat;lon;timestamp;P1;durP1;ratioP1;P2;durP2;ratioP2
19519;SDS011;9904;52.246;20.898;2023-03-23T16:06:46;7.80;;;4.67;;
19519;SDS011;9904;52.246;20.898;2023-03-23T16:09:15;10.90;;;5.07;;
19519;SDS011;9904;52.246;20.898;2023-03-23T16:11:42;11.30;;;5.10;;
19519;SDS011;9904;52.246;20.898;2023-03-23T16:14:09;10.50;;;5.87;;
19519;SDS011;9904;52.246;20.898;2023-03-23T16:16:36;15.07;;;6.07;;
19519;SDS011;9904;52.246;20.898;2023-03-23T16:19:05;12.63;;;5.93;;
19519;SDS011;9904;52.246;20.898;2023-03-23T16:21:31;11.77;;;6.50;;
19519;SDS011;9904;52.246;20.898;2023-03-23T16:23:58;13.80;;;5.50;;
19519;SDS011;9904;52.246;20.898;2023-03-23T16:26:25;12.20;;;4.70;;
19519;SDS011;9904;52.246;20.898;2023-03-23T16:28:51;9.87;;;4.77;;
19519;SDS011;9904;52.246;20.898;2023-03-23T16:31:35;9.17;;;4.40;;
19519;SDS011;9904;52.246;20.898;2023-03-23T16:34:01;12.47;;;4.33;;
19519;SDS011;9904;52.246;20.898;2023-03-23T16:36:28;9.77;;;4.27;;
19519;SDS011;9904;52.246;20.898;2023-03-23T16:38:55;8.00;;;4.00;;
19519;SDS011;9904;52.246;20.898;2023-03-23T16:41:21;9.23;;;4.00;;
19519;SDS011;9904;52.246;20.898;2023-03-23T16:43:48;9.13;;;3.83;;
19519;SDS011;9904;52.246;20.898;2023-03-23T16:46:15;9.77;;;3.80;;
19519;SDS011;9904;52.246;20.898;2023-03-23T16:48:42;8.93;;;4.27;;
19519;SDS011;9904;52.246;20.898;2023-03-23T16:51:08;10.80;;;5.00;;
19519;SDS011;9904;52.246;20.898;2023-03-23T16:53:35;9.53;;;5.10;;
19519;SDS011;9904;52.246;20.898;2023-03-23T16:56:03;11.17;;;5.60;;
19519;SDS011;9904;52.246;20.898;2023-03-23T16:58:30;11.27;;;5.77;;
19519;SDS011;9904;52.246;20.898;2023-03-23T17:00:57;12.97;;;5.57;;
19519;SDS011;9904;52.246;20.898;2023-03-23T17:03:23;10.93;;;6.17;;
19519;SDS011;9904;52.246;20.898;2023-03-23T17:05:50;10.27;;;5.40;;
19519;SDS011;9904;52.246;20.898;2023-03-23T17:08:18;9.57;;;5.00;;
19519;SDS011;9904;52.246;20.898;2023-03-23T17:10:45;13.10;;;6.23;;
19519;SDS011;9904;52.246;20.898;2023-03-23T17:13:13;14.50;;;6.87;;
19519;SDS011;9904;52.246;20.898;2023-03-23T17:15:40;11.57;;;5.40;;
19519;SDS011;9904;52.246;20.898;2023-03-23T17:18:11;9.83;;;5.83;;
19519;SDS011;9904;52.246;20.898;2023-03-23T17:20:38;11.43;;;5.97;;
19519;SDS011;9904;52.246;20.898;2023-03-23T17:23:05;11.27;;;5.27;;
19519;SDS011;9904;52.246;20.898;2023-03-23T17:25:32;14.47;;;5.23;;
19519;SDS011;9904;52.246;20.898;2023-03-23T17:27:58;10.63;;;5.00;;
19519;SDS011;9904;52.246;20.898;2023-03-23T17:30:31;12.37;;;4.63;;
19519;SDS011;9904;52.246;20.898;2023-03-23T17:32:58;8.27;;;4.50;;
19519;SDS011;9904;52.246;20.898;2023-03-23T17:35:25;8.07;;;4.73;;
19519;SDS011;9904;52.246;20.898;2023-03-23T17:37:52;9.70;;;4.70;;
19519;SDS011;9904;52.246;20.898;2023-03-23T17:40:18;15.63;;;5.37;;
19519;SDS011;9904;52.246;20.898;2023-03-23T17:42:45;13.43;;;5.40;;
19519;SDS011;9904;52.246;20.898;2023-03-23T17:45:12;10.80;;;4.70;;
19519;SDS011;9904;52.246;20.898;2023-03-23T17:47:38;10.07;;;5.53;;
19519;SDS011;9904;52.246;20.898;2023-03-23T17:50:05;15.00;;;5.53;;
19519;SDS011;9904;52.246;20.898;2023-03-23T17:52:38;17.93;;;6.90;;
19519;SDS011;9904;52.246;20.898;2023-03-23T17:55:05;27.33;;;10.23;;
19519;SDS011;9904;52.246;20.898;2023-03-23T17:57:32;14.03;;;6.90;;
19519;SDS011;9904;52.246;20.898;2023-03-23T18:00:00;12.13;;;6.33;;
19519;SDS011;9904;52.246;20.898;2023-03-23T18:02:30;15.23;;;5.97;;
19519;SDS011;9904;52.246;20.898;2023-03-23T18:04:57;16.67;;;6.77;;
19519;SDS011;9904;52.246;20.898;2023-03-23T18:07:24;15.63;;;6.57;;
19519;SDS011;9904;52.246;20.898;2023-03-23T18:09:51;15.73;;;7.17;;
19519;SDS011;9904;52.246;20.898;2023-03-23T18:12:18;14.27;;;7.37;;
19519;SDS011;9904;52.246;20.898;2023-03-23T18:14:44;20.93;;;8.60;;
19519;SDS011;9904;52.246;20.898;2023-03-23T18:17:11;18.57;;;7.93;;
19519;SDS011;9904;52.246;20.898;2023-03-23T18:19:37;21.33;;;7.17;;
19519;SDS011;9904;52.246;20.898;2023-03-23T18:22:04;19.27;;;7.77;;
19519;SDS011;9904;52.246;20.898;2023-03-23T18:24:31;15.67;;;7.70;;
19519;SDS011;9904;52.246;20.898;2023-03-23T18:26:57;19.03;;;8.33;;
19519;SDS011;9904;52.246;20.898;2023-03-23T18:29:25;18.83;;;8.83;;
19519;SDS011;9904;52.246;20.898;2023-03-23T18:31:51;17.93;;;8.53;;
19519;SDS011;9904;52.246;20.898;2023-03-23T18:34:18;15.80;;;7.37;;
19519;SDS011;9904;52.246;20.898;2023-03-23T18:36:44;16.90;;;7.77;;
19519;SDS011;9904;52.246;20.898;2023-03-23T18:39:14;18.97;;;7.83;;
19519;SDS011;9904;52.246;20.898;2023-03-23T18:41:41;17.67;;;8.47;;
19519;SDS011;9904;52.246;20.898;2023-03-23T18:44:08;13.63;;;7.03;;
19519;SDS011;9904;52.246;20.898;2023-03-23T18:46:34;15.77;;;7.20;;
19519;SDS011;9904;52.246;20.898;2023-03-23T18:49:03;15.93;;;7.03;;
19519;SDS011;9904;52.246;20.898;2023-03-23T18:51:29;14.27;;;7.57;;
19519;SDS011;9904;52.246;20.898;2023-03-23T18:53:56;17.47;;;7.70;;
19519;SDS011;9904;52.246;20.898;2023-03-23T18:56:23;17.30;;;7.50;;
19519;SDS011;9904;52.246;20.898;2023-03-23T18:58:51;14.83;;;7.83;;
19519;SDS011;9904;52.246;20.898;2023-03-23T19:01:18;14.93;;;7.50;;
19519;SDS011;9904;52.246;20.898;2023-03-23T19:03:45;16.80;;;7.30;;
19519;SDS011;9904;52.246;20.898;2023-03-23T19:06:13;16.17;;;7.20;;
19519;SDS011;9904;52.246;20.898;2023-03-23T19:08:42;15.10;;;7.10;;
19519;SDS011;9904;52.246;20.898;2023-03-23T19:11:11;17.03;;;6.07;;
19519;SDS011;9904;52.246;20.898;2023-03-23T19:13:38;17.40;;;8.13;;
19519;SDS011;9904;52.246;20.898;2023-03-23T19:16:15;16.80;;;8.20;;
19519;SDS011;9904;52.246;20.898;2023-03-23T19:18:42;13.30;;;6.40;;
19519;SDS011;9904;52.246;20.898;2023-03-23T19:21:09;15.57;;;7.00;;
19519;SDS011;9904;52.246;20.898;2023-03-23T19:23:43;13.93;;;6.23;;
19519;SDS011;9904;52.246;20.898;2023-03-23T19:26:13;15.27;;;6.70;;
19519;SDS011;9904;52.246;20.898;2023-03-23T19:28:54;12.70;;;5.60;;
19519;SDS011;9904;52.246;20.898;2023-03-23T19:31:23;12.33;;;5.40;;
19519;SDS011;9904;52.246;20.898;2023-03-23T19:33:51;12.13;;;4.77;;
19519;SDS011;9904;52.246;20.898;2023-03-23T19:36:19;10.97;;;4.37;;
19519;SDS011;9904;52.246;20.898;2023-03-23T19:38:47;8.07;;;3.67;;
19519;SDS011;9904;52.246;20.898;2023-03-23T19:41:15;9.97;;;3.87;;
19519;SDS011;9904;52.246;20.898;2023-03-23T19:43:44;8.23;;;3.30;;
19519;SDS011;9904;52.246;20.898;2023-03-23T19:46:11;11.20;;;3.40;;
19519;SDS011;9904;52.246;20.898;2023-03-23T19:48:39;7.03;;;3.23;;
19519;SDS011;9904;52.246;20.898;2023-03-23T19:51:06;6.90;;;3.53;;
19519;SDS011;9904;52.246;20.898;2023-03-23T19:53:33;9.57;;;3.40;;
19519;SDS011;9904;52.246;20.898;2023-03-23T19:56:00;10.57;;;3.50;;
19519;SDS011;9904;52.246;20.898;2023-03-23T19:58:29;9.27;;;3.30;;
19519;SDS011;9904;52.246;20.898;2023-03-23T20:00:58;5.33;;;2.97;;
19519;SDS011;9904;52.246;20.898;2023-03-23T20:03:25;6.30;;;3.10;;
19519;SDS011;9904;52.246;20.898;2023-03-23T20:05:57;10.00;;;2.67;;
19519;SDS011;9904;52.246;20.898;2023-03-23T20:08:26;9.17;;;2.80;;
19519;SDS011;9904;52.246;20.898;2023-03-23T20:10:59;6.27;;;3.03;;
19519;SDS011;9904;52.246;20.898;2023-03-23T20:13:33;4.67;;;2.30;;
19519;SDS011;9904;52.246;20.898;2023-03-23T20:16:00;6.10;;;2.50;;
19519;SDS011;9904;52.246;20.898;2023-03-23T20:18:27;6.50;;;2.47;;
19519;SDS011;9904;52.246;20.898;2023-03-23T20:21:06;4.93;;;2.30;;
19519;SDS011;9904;52.246;20.898;2023-03-23T20:23:35;5.70;;;2.23;;
19519;SDS011;9904;52.246;20.898;2023-03-23T20:26:37;6.03;;;2.70;;
19519;SDS011;9904;52.246;20.898;2023-03-23T20:28:59;4.40;;;2.33;;
19519;SDS011;9904;52.246;20.898;2023-03-23T20:31:27;8.60;;;2.90;;
19519;SDS011;9904;52.246;20.898;2023-03-23T20:33:59;8.20;;;2.70;;
19519;SDS011;9904;52.246;20.898;2023-03-23T20:36:32;7.10;;;2.37;;
19519;SDS011;9904;52.246;20.898;2023-03-23T20:39:08;6.70;;;3.17;;
19519;SDS011;9904;52.246;20.898;2023-03-23T20:41:37;6.17;;;2.90;;
19519;SDS011;9904;52.246;20.898;2023-03-23T20:44:06;8.43;;;3.00;;
19519;SDS011;9904;52.246;20.898;2023-03-23T20:46:34;7.47;;;2.80;;
19519;SDS011;9904;52.246;20.898;2023-03-23T20:49:02;7.50;;;3.07;;
19519;SDS011;9904;52.246;20.898;2023-03-23T20:51:31;6.20;;;2.90;;
19519;SDS011;9904;52.246;20.898;2023-03-23T20:53:58;6.77;;;3.03;;
19519;SDS011;9904;52.246;20.898;2023-03-23T20:56:27;8.87;;;3.20;;
19519;SDS011;9904;52.246;20.898;2023-03-23T20:58:53;11.87;;;4.20;;
19519;SDS011;9904;52.246;20.898;2023-03-23T21:01:21;6.83;;;3.50;;
19519;SDS011;9904;52.246;20.898;2023-03-23T21:03:47;6.33;;;3.07;;
19519;SDS011;9904;52.246;20.898;2023-03-23T21:06:17;4.80;;;2.80;;
19519;SDS011;9904;52.246;20.898;2023-03-23T21:08:44;4.73;;;3.10;;
19519;SDS011;9904;52.246;20.898;2023-03-23T21:11:18;9.00;;;3.27;;
19519;SDS011;9904;52.246;20.898;2023-03-23T21:13:46;7.27;;;3.30;;
19519;SDS011;9904;52.246;20.898;2023-03-23T21:16:13;7.93;;;3.40;;
19519;SDS011;9904;52.246;20.898;2023-03-23T21:18:40;7.47;;;3.50;;
19519;SDS011;9904;52.246;20.898;2023-03-23T21:21:07;8.87;;;4.20;;
19519;SDS011;9904;52.246;20.898;2023-03-23T21:23:36;8.90;;;3.90;;
19519;SDS011;9904;52.246;20.898;2023-03-23T21:26:05;6.53;;;3.53;;
19519;SDS011;9904;52.246;20.898;2023-03-23T21:28:33;6.73;;;3.53;;
19519;SDS011;9904;52.246;20.898;2023-03-23T21:31:00;7.80;;;3.57;;
19519;SDS011;9904;52.246;20.898;2023-03-23T21:33:29;9.60;;;3.43;;
19519;SDS011;9904;52.246;20.898;2023-03-23T21:35:56;11.43;;;4.07;;
19519;SDS011;9904;52.246;20.898;2023-03-23T21:38:23;9.77;;;4.03;;
19519;SDS011;9904;52.246;20.898;2023-03-23T21:40:52;8.67;;;3.67;;
19519;SDS011;9904;52.246;20.898;2023-03-23T21:43:19;7.10;;;3.70;;
19519;SDS011;9904;52.246;20.898;2023-03-23T21:45:54;7.63;;;3.77;;
19519;SDS011;9904;52.246;20.898;2023-03-23T21:48:22;10.70;;;3.83;;
19519;SDS011;9904;52.246;20.898;2023-03-23T21:50:49;8.57;;;3.77;;
19519;SDS011;9904;52.246;20.898;2023-03-23T21:53:16;8.90;;;4.27;;
19519;SDS011;9904;52.246;20.898;2023-03-23T21:55:46;7.60;;;3.87;;
19519;SDS011;9904;52.246;20.898;2023-03-23T21:58:20;8.37;;;4.23;;
19519;SDS011;9904;52.246;20.898;2023-03-23T22:00:52;7.50;;;4.17;;
19519;SDS011;9904;52.246;20.898;2023-03-23T22:03:20;15.63;;;4.70;;
19519;SDS011;9904;52.246;20.898;2023-03-23T22:05:49;10.53;;;4.30;;
19519;SDS011;9904;52.246;20.898;2023-03-23T22:08:20;10.20;;;5.70;;
